Airfield :
LOGIN :

Register | Disclaimer

   EN    FR    IT 

 










Legend :    VFR   Marginal VFR   IFR   Intensive IFR   Very Intensive IFR
Visi :
Ceiling :
>= 8 km
>= 3000ft
5 to 8 km
1000 to 3000 ft
1500m to 5 km
500 to 1000 ft
800 to 1500m
200 to 500 ft
< 800m
< 200 ft
Symbols :   Thunderstorms  Fog  Heavy snow  Heavy precipitations  Wind > 20 kt
SIGMETs :     Misc.  Thunderstorms  Icing  Turbulence  Mountain Waves  Volcanic Ashes







- Airport Elevation : 416 ft
- IATA code : OVD


LEAS - Asturias

CURRENT METAR :
  • 220000Z AUTO 22008KT 9999 SCT050 BKN066 08/04 Q1023

EXPIRED METARs :
  • 212330Z AUTO 22009KT 9999 FEW056 BKN065 08/04 Q1023
  • 212300Z AUTO 23007KT 9999 BKN060 08/04 Q1023
  • 212230Z 22008KT 9999 BKN060 08/04 Q1023 NOSIG
  • 212200Z 22008KT 9999 SCT060 08/04 Q1023 NOSIG
  • 212130Z 24006KT 210V270 9999 SCT060 07/05 Q1023 NOSIG
  • 212100Z 24006KT 9999 FEW040 07/05 Q1024 NOSIG

TAF TAF LEAS
Valid from the 21 at 21:00 until the 22 at 21:00 UTC


212000Z 2121/2221 24006KT 9999 SCT025 SCT040 TX11/2215Z TN05/2206Z
TEMPO 2200/2206 RA
PROB40
TEMPO 2206/2212 25015G25KT
BECMG 2209/2212 31010KT
TEMPO 2206/2221 31015G28KT 3000 RA BKN010
No reported NOTAMs for that airfield.



MET'MAP, your aeronautical weather chart ! - Copyright ORBIFLY December 2007 - Disclaimer

ORBIFLY MET'MAP TEAM :

Programming & Development : Alexandra Zaïnal
Concept & Development : Baudouin d'Aumeries
Co-Development & Prog : Marc-Olivier Méhu
Technical & hardware support : Manuel Goepfert

Contact : metmap@orbifly.com




SOURCES & CREDITS :

   NOAA